sensor_id;sensor_type;location;lat;lon;timestamp;pressure;altitude;pressure_sealevel;temperature;humidity
78444;BME280;67739;52.986;8.894;2023-02-15T00:01:10;103019.22;;;17.92;44.22
78444;BME280;67739;52.986;8.894;2023-02-15T00:03:36;103013.66;;;17.95;44.14
78444;BME280;67739;52.986;8.894;2023-02-15T00:06:03;103015.59;;;17.91;43.98
78444;BME280;67739;52.986;8.894;2023-02-15T00:08:28;103013.06;;;17.88;43.88
78444;BME280;67739;52.986;8.894;2023-02-15T00:11:12;103011.28;;;17.87;43.58
78444;BME280;67739;52.986;8.894;2023-02-15T00:13:38;103012.16;;;17.88;43.71
78444;BME280;67739;52.986;8.894;2023-02-15T00:16:07;103014.00;;;17.87;43.89
78444;BME280;67739;52.986;8.894;2023-02-15T00:18:33;103005.84;;;17.87;43.64
78444;BME280;67739;52.986;8.894;2023-02-15T00:21:02;103006.94;;;17.83;43.86
78444;BME280;67739;52.986;8.894;2023-02-15T00:23:28;103010.53;;;17.84;43.36
78444;BME280;67739;52.986;8.894;2023-02-15T00:26:03;103001.31;;;17.88;43.41
78444;BME280;67739;52.986;8.894;2023-02-15T00:28:29;103001.31;;;17.88;43.42
78444;BME280;67739;52.986;8.894;2023-02-15T00:31:02;103011.28;;;17.87;43.33
78444;BME280;67739;52.986;8.894;2023-02-15T00:33:27;103006.56;;;17.91;43.27
78444;BME280;67739;52.986;8.894;2023-02-15T00:35:57;103008.50;;;17.89;43.17
78444;BME280;67739;52.986;8.894;2023-02-15T00:38:22;103002.09;;;17.90;43.05
78444;BME280;67739;52.986;8.894;2023-02-15T00:40:55;103012.16;;;17.88;43.02
78444;BME280;67739;52.986;8.894;2023-02-15T00:43:20;103012.16;;;17.88;43.34
78444;BME280;67739;52.986;8.894;2023-02-15T00:45:46;103013.94;;;17.89;43.17
78444;BME280;67739;52.986;8.894;2023-02-15T00:48:11;103001.31;;;17.88;43.14
78444;BME280;67739;52.986;8.894;2023-02-15T00:50:37;103004.09;;;17.86;42.73
78444;BME280;67739;52.986;8.894;2023-02-15T00:53:02;103002.38;;;17.84;43.23
78444;BME280;67739;52.986;8.894;2023-02-15T00:55:27;103003.50;;;17.78;43.18
78444;BME280;67739;52.986;8.894;2023-02-15T00:57:53;102991.84;;;17.76;43.01
78444;BME280;67739;52.986;8.894;2023-02-15T01:00:18;102984.63;;;17.75;43.05
78444;BME280;67739;52.986;8.894;2023-02-15T01:02:43;102985.53;;;17.76;42.94
78444;BME280;67739;52.986;8.894;2023-02-15T01:05:09;102991.84;;;17.76;43.08
78444;BME280;67739;52.986;8.894;2023-02-15T01:07:34;102982.75;;;17.77;42.88
78444;BME280;67739;52.986;8.894;2023-02-15T01:09:59;102977.31;;;17.77;43.04
78444;BME280;67739;52.986;8.894;2023-02-15T01:12:25;102983.50;;;17.81;43.00
78444;BME280;67739;52.986;8.894;2023-02-15T01:14:50;102987.16;;;17.80;42.65
78444;BME280;67739;52.986;8.894;2023-02-15T01:17:15;102981.72;;;17.80;42.67
78444;BME280;67739;52.986;8.894;2023-02-15T01:19:40;102981.66;;;17.81;42.68
78444;BME280;67739;52.986;8.894;2023-02-15T01:22:06;102978.81;;;17.84;42.80
78444;BME280;67739;52.986;8.894;2023-02-15T01:24:31;102976.25;;;17.81;42.74
78444;BME280;67739;52.986;8.894;2023-02-15T01:26:57;102970.69;;;17.84;42.72
78444;BME280;67739;52.986;8.894;2023-02-15T01:29:22;102980.72;;;17.82;42.40
78444;BME280;67739;52.986;8.894;2023-02-15T01:31:47;102977.06;;;17.83;42.57
78444;BME280;67739;52.986;8.894;2023-02-15T01:34:12;102973.41;;;17.84;42.25
78444;BME280;67739;52.986;8.894;2023-02-15T01:36:38;102966.19;;;17.83;42.28
78444;BME280;67739;52.986;8.894;2023-02-15T01:39:03;102967.22;;;17.81;42.28
78444;BME280;67739;52.986;8.894;2023-02-15T01:41:28;102968.22;;;17.78;42.28
78444;BME280;67739;52.986;8.894;2023-02-15T01:44:00;102962.91;;;17.75;42.80
78444;BME280;67739;52.986;8.894;2023-02-15T01:46:35;102954.94;;;17.72;42.29
78444;BME280;67739;52.986;8.894;2023-02-15T01:49:27;102951.41;;;17.70;42.42
78444;BME280;67739;52.986;8.894;2023-02-15T01:51:53;102955.00;;;17.71;42.16
78444;BME280;67739;52.986;8.894;2023-02-15T01:54:25;102946.78;;;17.72;42.54
78444;BME280;67739;52.986;8.894;2023-02-15T01:56:54;102949.34;;;17.75;42.19
78444;BME280;67739;52.986;8.894;2023-02-15T01:59:23;102950.31;;;17.74;42.34
78444;BME280;67739;52.986;8.894;2023-02-15T02:01:56;102939.38;;;17.76;42.05
78444;BME280;67739;52.986;8.894;2023-02-15T02:04:31;102931.22;;;17.76;42.21
78444;BME280;67739;52.986;8.894;2023-02-15T02:06:59;102934.75;;;17.78;42.23
78444;BME280;67739;52.986;8.894;2023-02-15T02:09:25;102931.16;;;17.77;41.99
78444;BME280;67739;52.986;8.894;2023-02-15T02:11:51;102935.72;;;17.77;41.93
78444;BME280;67739;52.986;8.894;2023-02-15T02:14:19;102934.69;;;17.79;42.19
78444;BME280;67739;52.986;8.894;2023-02-15T02:23:08;102926.84;;;17.73;41.95
78444;BME280;67739;52.986;8.894;2023-02-15T02:25:49;102924.19;;;17.72;41.78
78444;BME280;67739;52.986;8.894;2023-02-15T02:28:54;102926.09;;;17.70;41.88
78444;BME280;67739;52.986;8.894;2023-02-15T02:39:59;102918.88;;;17.69;41.60
78444;BME280;67739;52.986;8.894;2023-02-15T02:44:59;102918.06;;;17.66;41.97
78444;BME280;67739;52.986;8.894;2023-02-15T02:47:33;102912.56;;;17.68;41.70
78444;BME280;67739;52.986;8.894;2023-02-15T02:50:04;102904.38;;;17.70;41.75
78444;BME280;67739;52.986;8.894;2023-02-15T02:52:50;102898.06;;;17.69;41.56
78444;BME280;67739;52.986;8.894;2023-02-15T02:57:52;102896.41;;;17.65;41.54
78444;BME280;67739;52.986;8.894;2023-02-15T03:00:20;102887.19;;;17.69;41.58
78444;BME280;67739;52.986;8.894;2023-02-15T03:02:47;102882.72;;;17.68;41.42
78444;BME280;67739;52.986;8.894;2023-02-15T03:05:17;102892.63;;;17.69;41.59
78444;BME280;67739;52.986;8.894;2023-02-15T03:07:48;102894.38;;;17.70;41.58
78444;BME280;67739;52.986;8.894;2023-02-15T03:10:14;102891.00;;;17.65;41.54
78444;BME280;67739;52.986;8.894;2023-02-15T03:12:41;102891.75;;;17.69;41.17
78444;BME280;67739;52.986;8.894;2023-02-15T03:15:15;102896.28;;;17.68;41.26
78444;BME280;67739;52.986;8.894;2023-02-15T03:17:45;102899.22;;;17.62;41.65
78444;BME280;67739;52.986;8.894;2023-02-15T03:20:18;102884.06;;;17.58;41.49
78444;BME280;67739;52.986;8.894;2023-02-15T03:22:54;102885.81;;;17.59;41.42
78444;BME280;67739;52.986;8.894;2023-02-15T03:25:30;102886.69;;;17.59;41.40
78444;BME280;67739;52.986;8.894;2023-02-15T03:28:01;102884.78;;;17.61;41.22
78444;BME280;67739;52.986;8.894;2023-02-15T03:30:30;102891.94;;;17.64;41.11
78444;BME280;67739;52.986;8.894;2023-02-15T03:32:58;102882.91;;;17.63;41.53
78444;BME280;67739;52.986;8.894;2023-02-15T03:35:28;102890.94;;;17.66;41.14
78444;BME280;67739;52.986;8.894;2023-02-15T03:37:59;102889.25;;;17.62;41.14
78444;BME280;67739;52.986;8.894;2023-02-15T03:40:29;102879.28;;;17.63;41.18
78444;BME280;67739;52.986;8.894;2023-02-15T03:43:21;102885.66;;;17.62;41.02
78444;BME280;67739;52.986;8.894;2023-02-15T03:45:50;102882.94;;;17.62;41.04
78444;BME280;67739;52.986;8.894;2023-02-15T03:48:30;102880.13;;;17.65;40.84
78444;BME280;67739;52.986;8.894;2023-02-15T03:51:02;102875.53;;;17.67;41.12
78444;BME280;67739;52.986;8.894;2023-02-15T03:53:48;102884.53;;;17.67;41.03
78444;BME280;67739;52.986;8.894;2023-02-15T03:56:15;102883.66;;;17.67;40.83
78444;BME280;67739;52.986;8.894;2023-02-15T03:58:40;102887.31;;;17.66;40.65
78444;BME280;67739;52.986;8.894;2023-02-15T04:04:23;102872.97;;;17.62;41.05
78444;BME280;67739;52.986;8.894;2023-02-15T04:06:50;102878.41;;;17.62;40.75
78444;BME280;67739;52.986;8.894;2023-02-15T04:09:15;102866.88;;;17.57;41.09
78444;BME280;67739;52.986;8.894;2023-02-15T04:11:59;102871.44;;;17.57;40.94
78444;BME280;67739;52.986;8.894;2023-02-15T04:14:24;102863.28;;;17.57;40.91
78444;BME280;67739;52.986;8.894;2023-02-15T04:17:09;102869.59;;;17.57;40.88
78444;BME280;67739;52.986;8.894;2023-02-15T04:19:34;102871.56;;;17.54;41.20
78444;BME280;67739;52.986;8.894;2023-02-15T04:22:18;102865.19;;;17.55;40.73
78444;BME280;67739;52.986;8.894;2023-02-15T04:25:02;102852.56;;;17.54;40.95
78444;BME280;67739;52.986;8.894;2023-02-15T04:27:45;102857.16;;;17.52;40.87
78444;BME280;67739;52.986;8.894;2023-02-15T04:30:13;102859.81;;;17.53;40.66
78444;BME280;67739;52.986;8.894;2023-02-15T04:32:39;102857.16;;;17.52;40.64
78444;BME280;67739;52.986;8.894;2023-02-15T04:35:06;102853.56;;;17.51;40.61
78444;BME280;67739;52.986;8.894;2023-02-15T04:37:32;102853.38;;;17.56;40.77
78444;BME280;67739;52.986;8.894;2023-02-15T04:39:57;102856.09;;;17.56;40.54
78444;BME280;67739;52.986;8.894;2023-02-15T04:42:26;102856.84;;;17.59;40.31
78444;BME280;67739;52.986;8.894;2023-02-15T04:44:52;102839.56;;;17.60;40.42
78444;BME280;67739;52.986;8.894;2023-02-15T04:47:17;102842.28;;;17.60;40.20
78444;BME280;67739;52.986;8.894;2023-02-15T04:49:43;102846.06;;;17.58;40.53
78444;BME280;67739;52.986;8.894;2023-02-15T04:52:08;102839.88;;;17.54;40.29
78444;BME280;67739;52.986;8.894;2023-02-15T04:54:33;102840.88;;;17.52;40.67
78444;BME280;67739;52.986;8.894;2023-02-15T04:56:59;102845.44;;;17.51;40.34
78444;BME280;67739;52.986;8.894;2023-02-15T04:59:24;102841.00;;;17.49;40.47
78444;BME280;67739;52.986;8.894;2023-02-15T05:01:49;102833.75;;;17.49;40.61
78444;BME280;67739;52.986;8.894;2023-02-15T05:04:15;102832.81;;;17.50;40.28
78444;BME280;67739;52.986;8.894;2023-02-15T05:06:40;102835.53;;;17.50;40.27
78444;BME280;67739;52.986;8.894;2023-02-15T05:09:05;102823.72;;;17.51;40.39
78444;BME280;67739;52.986;8.894;2023-02-15T05:11:31;102811.03;;;17.52;40.50
78444;BME280;67739;52.986;8.894;2023-02-15T05:13:56;102817.41;;;17.51;40.22
78444;BME280;67739;52.986;8.894;2023-02-15T05:16:21;102818.41;;;17.48;40.09
78444;BME280;67739;52.986;8.894;2023-02-15T05:18:47;102816.81;;;17.44;40.43
78444;BME280;67739;52.986;8.894;2023-02-15T05:21:12;102815.00;;;17.45;40.53
78444;BME280;67739;52.986;8.894;2023-02-15T05:23:38;102815.19;;;17.40;40.54
78444;BME280;67739;52.986;8.894;2023-02-15T05:26:04;102816.13;;;17.39;40.35
78444;BME280;67739;52.986;8.894;2023-02-15T05:28:48;102807.03;;;17.40;40.33
78444;BME280;67739;52.986;8.894;2023-02-15T05:31:16;102812.59;;;17.37;40.34
78444;BME280;67739;52.986;8.894;2023-02-15T05:33:42;102821.63;;;17.38;40.55
78444;BME280;67739;52.986;8.894;2023-02-15T05:36:08;102807.25;;;17.36;40.22
78444;BME280;67739;52.986;8.894;2023-02-15T05:38:34;102810.91;;;17.35;40.46
78444;BME280;67739;52.986;8.894;2023-02-15T05:41:02;102813.63;;;17.35;40.19
78444;BME280;67739;52.986;8.894;2023-02-15T05:43:27;102810.09;;;17.32;40.53
78444;BME280;67739;52.986;8.894;2023-02-15T05:45:53;102808.47;;;17.28;40.46
78444;BME280;67739;52.986;8.894;2023-02-15T05:48:21;102808.47;;;17.28;40.42
78444;BME280;67739;52.986;8.894;2023-02-15T05:51:03;102814.72;;;17.30;40.67
78444;BME280;67739;52.986;8.894;2023-02-15T05:53:30;102804.00;;;17.27;40.50
78444;BME280;67739;52.986;8.894;2023-02-15T05:55:57;102806.72;;;17.27;40.82
78444;BME280;67739;52.986;8.894;2023-02-15T05:58:37;102805.00;;;17.25;40.75
78444;BME280;67739;52.986;8.894;2023-02-15T06:01:12;102805.19;;;17.20;40.73
78444;BME280;67739;52.986;8.894;2023-02-15T06:03:39;102800.78;;;17.18;40.47
78444;BME280;67739;52.986;8.894;2023-02-15T06:06:05;102802.78;;;17.14;40.46
78444;BME280;67739;52.986;8.894;2023-02-15T06:08:32;102797.41;;;17.13;40.63
78444;BME280;67739;52.986;8.894;2023-02-15T06:10:57;102792.06;;;17.11;40.98
78444;BME280;67739;52.986;8.894;2023-02-15T06:13:22;102790.47;;;17.06;40.80
78444;BME280;67739;52.986;8.894;2023-02-15T06:15:48;102794.13;;;17.05;40.37
78444;BME280;67739;52.986;8.894;2023-02-15T06:18:13;102792.47;;;17.02;41.02
78444;BME280;67739;52.986;8.894;2023-02-15T06:20:38;102777.16;;;17.01;40.81
78444;BME280;67739;52.986;8.894;2023-02-15T06:23:04;102782.63;;;17.00;40.75
78444;BME280;67739;52.986;8.894;2023-02-15T06:25:29;102780.94;;;16.97;40.69
78444;BME280;67739;52.986;8.894;2023-02-15T06:27:54;102792.72;;;16.96;40.68
78444;BME280;67739;52.986;8.894;2023-02-15T06:30:20;102784.72;;;16.93;40.68
78444;BME280;67739;52.986;8.894;2023-02-15T06:32:45;102789.31;;;16.91;40.57
78444;BME280;67739;52.986;8.894;2023-02-15T06:35:10;102792.09;;;16.89;40.33
78444;BME280;67739;52.986;8.894;2023-02-15T06:37:36;102799.22;;;16.92;40.62
78444;BME280;67739;52.986;8.894;2023-02-15T06:40:02;102795.56;;;16.93;40.33
78444;BME280;67739;52.986;8.894;2023-02-15T06:42:28;102791.03;;;16.93;40.10
78444;BME280;67739;52.986;8.894;2023-02-15T06:44:53;102790.97;;;16.95;40.75
78444;BME280;67739;52.986;8.894;2023-02-15T06:47:19;102785.53;;;16.95;40.61
78444;BME280;67739;52.986;8.894;2023-02-15T06:49:44;102779.41;;;16.90;40.77
78444;BME280;67739;52.986;8.894;2023-02-15T06:52:09;102783.97;;;16.89;40.69
78444;BME280;67739;52.986;8.894;2023-02-15T06:54:35;102787.72;;;16.87;40.95
78444;BME280;67739;52.986;8.894;2023-02-15T06:57:00;102783.34;;;16.83;41.15
78444;BME280;67739;52.986;8.894;2023-02-15T06:59:25;102787.97;;;16.81;41.23
78444;BME280;67739;52.986;8.894;2023-02-15T07:01:51;102793.56;;;16.76;41.50
78444;BME280;67739;52.986;8.894;2023-02-15T07:04:16;102791.72;;;16.77;41.69
78444;BME280;67739;52.986;8.894;2023-02-15T07:06:41;102793.72;;;16.73;41.93
78444;BME280;67739;52.986;8.894;2023-02-15T07:09:07;102802.03;;;16.69;42.02
78444;BME280;67739;52.986;8.894;2023-02-15T07:11:32;102797.69;;;16.65;42.07
78444;BME280;67739;52.986;8.894;2023-02-15T07:14:16;102793.22;;;16.62;42.40
78444;BME280;67739;52.986;8.894;2023-02-15T07:16:42;102792.41;;;16.60;42.28
78444;BME280;67739;52.986;8.894;2023-02-15T07:19:07;102786.19;;;16.58;42.17
78444;BME280;67739;52.986;8.894;2023-02-15T07:21:34;102787.13;;;16.57;41.76
78444;BME280;67739;52.986;8.894;2023-02-15T07:23:59;102787.13;;;16.57;42.01
78444;BME280;67739;52.986;8.894;2023-02-15T07:26:25;102780.91;;;16.55;41.84
78444;BME280;67739;52.986;8.894;2023-02-15T07:28:51;102784.50;;;16.55;41.96
78444;BME280;67739;52.986;8.894;2023-02-15T07:31:16;102772.72;;;16.56;41.70
78444;BME280;67739;52.986;8.894;2023-02-15T07:33:41;102764.53;;;16.58;41.75
78444;BME280;67739;52.986;8.894;2023-02-15T07:36:08;102758.22;;;16.57;41.79
78444;BME280;67739;52.986;8.894;2023-02-15T07:38:38;102752.56;;;16.62;41.36
78444;BME280;67739;52.986;8.894;2023-02-15T07:41:09;102761.72;;;16.59;41.32
78444;BME280;67739;52.986;8.894;2023-02-15T07:43:36;102759.81;;;16.61;41.14
78444;BME280;67739;52.986;8.894;2023-02-15T07:46:07;102760.63;;;16.65;41.23
78444;BME280;67739;52.986;8.894;2023-02-15T07:48:33;102751.59;;;16.65;41.38
78444;BME280;67739;52.986;8.894;2023-02-15T07:51:00;102753.44;;;16.64;41.11
78444;BME280;67739;52.986;8.894;2023-02-15T07:53:26;102750.78;;;16.63;41.13
78444;BME280;67739;52.986;8.894;2023-02-15T07:55:51;102753.53;;;16.61;41.19
78444;BME280;67739;52.986;8.894;2023-02-15T07:58:18;102751.75;;;16.60;41.09
78444;BME280;67739;52.986;8.894;2023-02-15T08:00:43;102761.72;;;16.59;40.88
78444;BME280;67739;52.986;8.894;2023-02-15T08:03:27;102759.00;;;16.59;40.88
78444;BME280;67739;52.986;8.894;2023-02-15T08:05:58;102756.44;;;16.56;41.32
78444;BME280;67739;52.986;8.894;2023-02-15T08:08:24;102751.03;;;16.56;41.26
78444;BME280;67739;52.986;8.894;2023-02-15T08:14:15;102741.06;;;16.57;41.31
78444;BME280;67739;52.986;8.894;2023-02-15T08:16:44;102739.19;;;16.59;40.99
78444;BME280;67739;52.986;8.894;2023-02-15T08:19:16;102729.09;;;16.63;40.78
78444;BME280;67739;52.986;8.894;2023-02-15T08:21:44;102741.72;;;16.64;40.60
78444;BME280;67739;52.986;8.894;2023-02-15T08:24:10;102736.94;;;16.70;40.61
78444;BME280;67739;52.986;8.894;2023-02-15T08:26:37;102740.56;;;16.69;40.58
78444;BME280;67739;52.986;8.894;2023-02-15T08:29:04;102736.81;;;16.73;40.77
78444;BME280;67739;52.986;8.894;2023-02-15T08:31:30;102740.28;;;16.75;40.56
78444;BME280;67739;52.986;8.894;2023-02-15T08:33:56;102728.31;;;16.81;40.54
78444;BME280;67739;52.986;8.894;2023-02-15T08:36:24;102729.84;;;16.88;40.56
78444;BME280;67739;52.986;8.894;2023-02-15T08:38:50;102733.25;;;16.91;40.15
78444;BME280;67739;52.986;8.894;2023-02-15T08:43:45;102725.88;;;16.95;40.38
78444;BME280;67739;52.986;8.894;2023-02-15T08:46:13;102733.06;;;16.96;40.19
78444;BME280;67739;52.986;8.894;2023-02-15T08:48:39;102730.38;;;16.96;40.19
78444;BME280;67739;52.986;8.894;2023-02-15T08:51:06;102727.72;;;16.94;40.36
78444;BME280;67739;52.986;8.894;2023-02-15T08:53:32;102722.34;;;16.93;40.57
78444;BME280;67739;52.986;8.894;2023-02-15T08:55:58;102718.88;;;16.89;40.26
78444;BME280;67739;52.986;8.894;2023-02-15T08:58:24;102713.41;;;16.91;40.17
78444;BME280;67739;52.986;8.894;2023-02-15T09:00:50;102715.28;;;16.89;40.46
78444;BME280;67739;52.986;8.894;2023-02-15T09:03:15;102718.88;;;16.89;40.32
78444;BME280;67739;52.986;8.894;2023-02-15T09:05:41;102720.72;;;16.89;40.23
78444;BME280;67739;52.986;8.894;2023-02-15T09:08:06;102716.28;;;16.88;40.27
78444;BME280;67739;52.986;8.894;2023-02-15T09:10:31;102717.06;;;16.90;40.67
78444;BME280;67739;52.986;8.894;2023-02-15T09:12:57;102711.63;;;16.90;40.38
78444;BME280;67739;52.986;8.894;2023-02-15T09:15:22;102712.53;;;16.90;40.48
78444;BME280;67739;52.986;8.894;2023-02-15T09:17:47;102716.00;;;16.94;40.61
78444;BME280;67739;52.986;8.894;2023-02-15T09:20:12;102700.47;;;16.98;40.14
78444;BME280;67739;52.986;8.894;2023-02-15T09:22:38;102714.78;;;17.01;40.13
78444;BME280;67739;52.986;8.894;2023-02-15T09:25:03;102710.06;;;17.05;40.50
78444;BME280;67739;52.986;8.894;2023-02-15T09:27:29;102705.53;;;17.05;40.02
78444;BME280;67739;52.986;8.894;2023-02-15T09:29:55;102706.34;;;17.07;40.41
78444;BME280;67739;52.986;8.894;2023-02-15T09:32:20;102709.81;;;17.11;40.03
78444;BME280;67739;52.986;8.894;2023-02-15T09:34:47;102702.56;;;17.11;40.05
78444;BME280;67739;52.986;8.894;2023-02-15T09:37:12;102697.13;;;17.11;40.10
78444;BME280;67739;52.986;8.894;2023-02-15T09:39:40;102695.25;;;17.13;40.01
78444;BME280;67739;52.986;8.894;2023-02-15T09:45:17;102706.16;;;17.12;40.19
78444;BME280;67739;52.986;8.894;2023-02-15T10:03:54;102700.47;;;17.37;40.08
78444;BME280;67739;52.986;8.894;2023-02-15T10:22:49;102683.53;;;17.71;39.88
78444;BME280;67739;52.986;8.894;2023-02-15T10:28:16;102699.50;;;17.77;39.90
78444;BME280;67739;52.986;8.894;2023-02-15T10:30:47;102695.69;;;17.81;39.71
78444;BME280;67739;52.986;8.894;2023-02-15T10:36:01;102691.91;;;17.85;39.82
78444;BME280;67739;52.986;8.894;2023-02-15T10:38:59;102689.91;;;17.88;39.60
78444;BME280;67739;52.986;8.894;2023-02-15T10:52:52;102681.09;;;18.02;39.97
78444;BME280;67739;52.986;8.894;2023-02-15T10:56:22;102679.34;;;18.01;39.86
78444;BME280;67739;52.986;8.894;2023-02-15T11:04:46;102675.53;;;18.22;39.73
78444;BME280;67739;52.986;8.894;2023-02-15T11:07:19;102673.69;;;18.23;39.58
78444;BME280;67739;52.986;8.894;2023-02-15T11:09:51;102669.88;;;18.27;39.60
78444;BME280;67739;52.986;8.894;2023-02-15T11:12:23;102678.75;;;18.30;39.38
78444;BME280;67739;52.986;8.894;2023-02-15T11:15:02;102675.22;;;18.28;39.92
78444;BME280;67739;52.986;8.894;2023-02-15T11:17:40;102668.78;;;18.31;39.95
78444;BME280;67739;52.986;8.894;2023-02-15T11:20:28;102672.25;;;18.33;39.84
78444;BME280;67739;52.986;8.894;2023-02-15T11:22:54;102665.94;;;18.32;40.00
78444;BME280;67739;52.986;8.894;2023-02-15T11:25:28;102665.94;;;18.32;39.97
78444;BME280;67739;52.986;8.894;2023-02-15T11:27:55;102658.66;;;18.33;40.00
78444;BME280;67739;52.986;8.894;2023-02-15T11:30:28;102654.22;;;18.32;39.86
78444;BME280;67739;52.986;8.894;2023-02-15T11:33:01;102647.66;;;18.36;40.27
78444;BME280;67739;52.986;8.894;2023-02-15T11:35:32;102647.56;;;18.37;39.89
78444;BME280;67739;52.986;8.894;2023-02-15T11:38:06;102636.56;;;18.41;40.24
78444;BME280;67739;52.986;8.894;2023-02-15T11:40:45;102635.69;;;18.40;40.03
78444;BME280;67739;52.986;8.894;2023-02-15T11:43:28;102633.84;;;18.41;40.05
78444;BME280;67739;52.986;8.894;2023-02-15T11:45:55;102627.44;;;18.42;40.45
78444;BME280;67739;52.986;8.894;2023-02-15T11:48:20;102629.13;;;18.44;40.36
78444;BME280;67739;52.986;8.894;2023-02-15T11:50:46;102628.78;;;18.50;40.16
78444;BME280;67739;52.986;8.894;2023-02-15T11:53:13;102626.88;;;18.52;40.29
78444;BME280;67739;52.986;8.894;2023-02-15T11:55:42;102618.50;;;18.57;40.46
78444;BME280;67739;52.986;8.894;2023-02-15T11:58:28;102610.09;;;18.61;40.49
78444;BME280;67739;52.986;8.894;2023-02-15T12:03:47;102603.25;;;18.71;40.07
78444;BME280;67739;52.986;8.894;2023-02-15T12:06:35;102603.97;;;18.75;40.05
78444;BME280;67739;52.986;8.894;2023-02-15T12:11:50;102591.94;;;18.79;39.73
78444;BME280;67739;52.986;8.894;2023-02-15T12:14:16;102585.38;;;18.83;40.07
78444;BME280;67739;52.986;8.894;2023-02-15T12:16:51;102578.03;;;18.85;40.14
78444;BME280;67739;52.986;8.894;2023-02-15T12:19:33;102578.81;;;18.87;40.09
78444;BME280;67739;52.986;8.894;2023-02-15T12:22:03;102583.91;;;18.93;40.25
78444;BME280;67739;52.986;8.894;2023-02-15T12:24:32;102584.72;;;18.95;40.11
78444;BME280;67739;52.986;8.894;2023-02-15T12:27:03;102584.78;;;18.94;39.90
78444;BME280;67739;52.986;8.894;2023-02-15T12:29:44;102579.19;;;18.97;40.35
78444;BME280;67739;52.986;8.894;2023-02-15T12:32:19;102575.59;;;18.96;40.34
78444;BME280;67739;52.986;8.894;2023-02-15T12:34:47;102569.34;;;18.94;40.20
78444;BME280;67739;52.986;8.894;2023-02-15T12:37:19;102567.88;;;18.89;40.51
78444;BME280;67739;52.986;8.894;2023-02-15T12:39:57;102559.88;;;18.86;40.54
78444;BME280;67739;52.986;8.894;2023-02-15T12:42:24;102558.03;;;18.86;40.43
78444;BME280;67739;52.986;8.894;2023-02-15T12:45:04;102553.38;;;18.88;40.82
78444;BME280;67739;52.986;8.894;2023-02-15T12:47:44;102553.13;;;18.93;40.70
78444;BME280;67739;52.986;8.894;2023-02-15T12:50:22;102555.75;;;18.94;40.37
78444;BME280;67739;52.986;8.894;2023-02-15T12:52:50;102549.44;;;18.94;40.51
78444;BME280;67739;52.986;8.894;2023-02-15T12:55:22;102552.94;;;18.96;40.69
78444;BME280;67739;52.986;8.894;2023-02-15T12:57:48;102551.09;;;18.96;40.49
78444;BME280;67739;52.986;8.894;2023-02-15T13:02:48;102546.09;;;19.04;40.48
78444;BME280;67739;52.986;8.894;2023-02-15T13:05:34;102549.53;;;19.08;40.86
78444;BME280;67739;52.986;8.894;2023-02-15T13:08:08;102530.25;;;19.13;40.47
78444;BME280;67739;52.986;8.894;2023-02-15T13:10:37;102538.16;;;19.17;40.60
78444;BME280;67739;52.986;8.894;2023-02-15T13:13:16;102537.09;;;19.20;40.71
78444;BME280;67739;52.986;8.894;2023-02-15T13:15:45;102531.63;;;19.20;40.53
78444;BME280;67739;52.986;8.894;2023-02-15T13:18:17;102526.03;;;19.23;40.41
78444;BME280;67739;52.986;8.894;2023-02-15T13:20:46;102526.75;;;19.26;40.60
78444;BME280;67739;52.986;8.894;2023-02-15T13:23:22;102523.84;;;19.29;40.54
78444;BME280;67739;52.986;8.894;2023-02-15T13:25:50;102527.28;;;19.33;40.72
78444;BME280;67739;52.986;8.894;2023-02-15T13:28:18;102523.56;;;19.34;40.76
78444;BME280;67739;52.986;8.894;2023-02-15T13:30:47;102530.59;;;19.38;40.79
78444;BME280;67739;52.986;8.894;2023-02-15T13:33:30;102518.03;;;19.35;40.81
78444;BME280;67739;52.986;8.894;2023-02-15T13:36:14;102517.16;;;19.35;40.52
78444;BME280;67739;52.986;8.894;2023-02-15T13:39:40;102519.13;;;19.33;40.84
78444;BME280;67739;52.986;8.894;2023-02-15T13:42:49;102496.47;;;19.32;40.95
78444;BME280;67739;52.986;8.894;2023-02-15T13:48:10;102493.91;;;19.29;40.88
78444;BME280;67739;52.986;8.894;2023-02-15T13:57:24;102490.66;;;19.38;41.00
78444;BME280;67739;52.986;8.894;2023-02-15T14:05:29;102483.69;;;19.49;40.26
78444;BME280;67739;52.986;8.894;2023-02-15T14:08:01;102477.31;;;19.50;40.18
78444;BME280;67739;52.986;8.894;2023-02-15T14:10:40;102484.53;;;19.51;40.26
78444;BME280;67739;52.986;8.894;2023-02-15T14:16:03;102481.72;;;19.52;40.37
78444;BME280;67739;52.986;8.894;2023-02-15T14:18:41;102481.88;;;19.49;40.60
78444;BME280;67739;52.986;8.894;2023-02-15T14:26:59;102472.94;;;19.31;40.78
78444;BME280;67739;52.986;8.894;2023-02-15T14:32:23;102477.34;;;19.18;40.90
78444;BME280;67739;52.986;8.894;2023-02-15T14:34:55;102475.91;;;19.11;40.76
78444;BME280;67739;52.986;8.894;2023-02-15T14:37:46;102472.56;;;19.06;41.21
78444;BME280;67739;52.986;8.894;2023-02-15T14:49:12;102476.69;;;18.82;41.51
78444;BME280;67739;52.986;8.894;2023-02-15T14:59:27;102475.53;;;18.70;41.97
78444;BME280;67739;52.986;8.894;2023-02-15T15:04:40;102475.63;;;18.68;42.12
78444;BME280;67739;52.986;8.894;2023-02-15T15:09:39;102479.75;;;18.60;42.03
78444;BME280;67739;52.986;8.894;2023-02-15T15:14:47;102473.78;;;18.52;42.24
78444;BME280;67739;52.986;8.894;2023-02-15T15:20:13;102476.94;;;18.44;42.56
78444;BME280;67739;52.986;8.894;2023-02-15T15:22:42;102464.31;;;18.43;42.79
78444;BME280;67739;52.986;8.894;2023-02-15T15:25:39;102464.47;;;18.40;42.45
78444;BME280;67739;52.986;8.894;2023-02-15T15:27:57;102457.44;;;18.36;42.40
78444;BME280;67739;52.986;8.894;2023-02-15T15:48:53;102414.00;;;18.19;42.73
78444;BME280;67739;52.986;8.894;2023-02-15T15:51:32;102406.84;;;18.18;42.87
78444;BME280;67739;52.986;8.894;2023-02-15T15:53:59;102412.28;;;18.18;42.67